sensor_id;sensor_type;location;lat;lon;timestamp;pressure;altitude;pressure_sealevel;temperature;humidity
61870;BME280;47810;42.264;23.826;2023-08-06T00:02:02;92680.84;;;22.59;55.85
61870;BME280;47810;42.264;23.826;2023-08-06T00:04:28;92682.53;;;22.67;57.01
61870;BME280;47810;42.264;23.826;2023-08-06T00:06:53;92684.63;;;22.78;54.76
61870;BME280;47810;42.264;23.826;2023-08-06T00:09:19;92688.84;;;22.94;54.72
61870;BME280;47810;42.264;23.826;2023-08-06T00:11:44;92691.13;;;23.04;53.24
61870;BME280;47810;42.264;23.826;2023-08-06T00:14:12;92702.13;;;23.02;53.74
61870;BME280;47810;42.264;23.826;2023-08-06T00:16:37;92700.97;;;22.70;54.57
61870;BME280;47810;42.264;23.826;2023-08-06T00:19:03;92689.59;;;22.81;54.57
61870;BME280;47810;42.264;23.826;2023-08-06T00:21:28;92687.84;;;22.53;63.60
61870;BME280;47810;42.264;23.826;2023-08-06T00:23:54;92690.69;;;22.32;65.23
61870;BME280;47810;42.264;23.826;2023-08-06T00:26:19;92693.50;;;22.24;67.69
61870;BME280;47810;42.264;23.826;2023-08-06T00:28:45;92690.31;;;21.79;65.78
61870;BME280;47810;42.264;23.826;2023-08-06T00:31:10;92681.44;;;21.50;66.14
61870;BME280;47810;42.264;23.826;2023-08-06T00:33:36;92686.25;;;21.55;69.26
61870;BME280;47810;42.264;23.826;2023-08-06T00:36:01;92685.72;;;21.73;65.82
61870;BME280;47810;42.264;23.826;2023-08-06T00:38:27;92683.13;;;21.86;70.64
61870;BME280;47810;42.264;23.826;2023-08-06T00:40:52;92682.34;;;21.92;67.42
61870;BME280;47810;42.264;23.826;2023-08-06T00:43:18;92670.66;;;21.72;67.99
61870;BME280;47810;42.264;23.826;2023-08-06T00:45:44;92670.84;;;21.21;70.33
61870;BME280;47810;42.264;23.826;2023-08-06T00:48:09;92671.72;;;21.28;70.37
61870;BME280;47810;42.264;23.826;2023-08-06T00:50:35;92663.41;;;21.44;69.62
61870;BME280;47810;42.264;23.826;2023-08-06T00:53:01;92652.38;;;21.32;71.15
61870;BME280;47810;42.264;23.826;2023-08-06T00:55:28;92650.97;;;21.15;71.18
61870;BME280;47810;42.264;23.826;2023-08-06T00:57:55;92657.56;;;21.12;72.61
61870;BME280;47810;42.264;23.826;2023-08-06T01:00:21;92648.63;;;20.62;74.61
61870;BME280;47810;42.264;23.826;2023-08-06T01:02:48;92633.19;;;20.64;74.59
61870;BME280;47810;42.264;23.826;2023-08-06T01:05:14;92618.97;;;20.49;74.98
61870;BME280;47810;42.264;23.826;2023-08-06T01:08:05;92615.63;;;20.47;75.09
61870;BME280;47810;42.264;23.826;2023-08-06T01:15:46;92644.09;;;20.48;75.92
61870;BME280;47810;42.264;23.826;2023-08-06T01:18:12;92623.97;;;20.52;74.58
61870;BME280;47810;42.264;23.826;2023-08-06T01:20:39;92636.63;;;20.58;74.36
61870;BME280;47810;42.264;23.826;2023-08-06T01:23:06;92635.91;;;20.92;73.45
61870;BME280;47810;42.264;23.826;2023-08-06T01:25:40;92624.47;;;21.05;72.67
61870;BME280;47810;42.264;23.826;2023-08-06T01:28:11;92619.63;;;20.94;73.10
61870;BME280;47810;42.264;23.826;2023-08-06T01:30:41;92617.66;;;20.81;74.58
61870;BME280;47810;42.264;23.826;2023-08-06T01:33:09;92608.63;;;20.89;74.98
61870;BME280;47810;42.264;23.826;2023-08-06T01:35:37;92606.84;;;20.53;75.69
61870;BME280;47810;42.264;23.826;2023-08-06T01:38:03;92625.38;;;20.33;75.70
61870;BME280;47810;42.264;23.826;2023-08-06T01:40:29;92622.94;;;20.53;75.42
61870;BME280;47810;42.264;23.826;2023-08-06T01:42:55;92619.44;;;20.38;76.79
61870;BME280;47810;42.264;23.826;2023-08-06T01:45:20;92604.06;;;20.46;74.44
61870;BME280;47810;42.264;23.826;2023-08-06T01:47:46;92581.22;;;20.29;74.66
61870;BME280;47810;42.264;23.826;2023-08-06T01:50:12;92588.63;;;20.12;75.34
61870;BME280;47810;42.264;23.826;2023-08-06T01:52:37;92600.91;;;20.21;75.86
61870;BME280;47810;42.264;23.826;2023-08-06T01:55:04;92592.44;;;20.03;76.97
61870;BME280;47810;42.264;23.826;2023-08-06T01:57:29;92573.81;;;19.95;76.92
61870;BME280;47810;42.264;23.826;2023-08-06T01:59:55;92578.66;;;19.85;76.89
61870;BME280;47810;42.264;23.826;2023-08-06T02:02:21;92578.44;;;20.01;75.02
61870;BME280;47810;42.264;23.826;2023-08-06T02:04:47;92571.31;;;19.93;75.48
61870;BME280;47810;42.264;23.826;2023-08-06T02:07:12;92586.72;;;20.06;77.88
61870;BME280;47810;42.264;23.826;2023-08-06T02:09:38;92605.06;;;19.88;78.96
61870;BME280;47810;42.264;23.826;2023-08-06T02:12:05;92605.22;;;20.01;77.64
61870;BME280;47810;42.264;23.826;2023-08-06T02:14:31;92608.44;;;19.96;78.62
61870;BME280;47810;42.264;23.826;2023-08-06T02:16:56;92616.16;;;19.85;78.96
61870;BME280;47810;42.264;23.826;2023-08-06T02:19:22;92623.25;;;19.92;78.93
61870;BME280;47810;42.264;23.826;2023-08-06T02:21:47;92617.22;;;20.05;77.85
61870;BME280;47810;42.264;23.826;2023-08-06T02:24:14;92590.91;;;19.94;78.20
61870;BME280;47810;42.264;23.826;2023-08-06T02:26:39;92579.75;;;19.75;78.25
61870;BME280;47810;42.264;23.826;2023-08-06T02:29:05;92589.19;;;19.71;79.20
61870;BME280;47810;42.264;23.826;2023-08-06T02:31:31;92594.63;;;19.78;79.87
61870;BME280;47810;42.264;23.826;2023-08-06T02:33:56;92598.22;;;20.00;77.52
61870;BME280;47810;42.264;23.826;2023-08-06T02:36:23;92590.78;;;20.02;77.70
61870;BME280;47810;42.264;23.826;2023-08-06T02:38:49;92592.94;;;20.28;74.94
61870;BME280;47810;42.264;23.826;2023-08-06T02:41:15;92579.22;;;20.38;72.55
61870;BME280;47810;42.264;23.826;2023-08-06T02:43:40;92579.88;;;20.40;73.60
61870;BME280;47810;42.264;23.826;2023-08-06T02:46:06;92585.09;;;20.48;72.56
61870;BME280;47810;42.264;23.826;2023-08-06T02:48:31;92598.44;;;20.56;74.26
61870;BME280;47810;42.264;23.826;2023-08-06T02:50:57;92591.03;;;20.58;73.51
61870;BME280;47810;42.264;23.826;2023-08-06T02:53:24;92594.81;;;20.28;74.59
61870;BME280;47810;42.264;23.826;2023-08-06T02:55:49;92595.69;;;19.98;74.57
61870;BME280;47810;42.264;23.826;2023-08-06T02:58:15;92585.81;;;19.99;74.54
61870;BME280;47810;42.264;23.826;2023-08-06T03:00:40;92586.63;;;19.99;74.62
61870;BME280;47810;42.264;23.826;2023-08-06T03:03:06;92585.34;;;19.95;75.20
61870;BME280;47810;42.264;23.826;2023-08-06T03:05:32;92583.19;;;19.69;76.22
61870;BME280;47810;42.264;23.826;2023-08-06T03:07:57;92582.81;;;19.87;75.74
61870;BME280;47810;42.264;23.826;2023-08-06T03:10:23;92587.00;;;19.96;74.64
61870;BME280;47810;42.264;23.826;2023-08-06T03:12:48;92601.56;;;20.23;73.54
61870;BME280;47810;42.264;23.826;2023-08-06T03:15:15;92599.03;;;20.37;73.47
61870;BME280;47810;42.264;23.826;2023-08-06T03:17:40;92599.16;;;20.50;73.39
61870;BME280;47810;42.264;23.826;2023-08-06T03:20:06;92601.19;;;20.48;72.24
61870;BME280;47810;42.264;23.826;2023-08-06T03:22:32;92617.28;;;20.48;72.90
61870;BME280;47810;42.264;23.826;2023-08-06T03:24:58;92617.19;;;20.56;73.06
61870;BME280;47810;42.264;23.826;2023-08-06T03:27:24;92620.72;;;20.57;73.22
61870;BME280;47810;42.264;23.826;2023-08-06T03:29:49;92623.22;;;20.58;73.05
61870;BME280;47810;42.264;23.826;2023-08-06T03:32:18;92618.44;;;20.39;75.37
61870;BME280;47810;42.264;23.826;2023-08-06T03:34:43;92614.72;;;20.40;75.83
61870;BME280;47810;42.264;23.826;2023-08-06T03:37:09;92615.25;;;20.50;73.36
61870;BME280;47810;42.264;23.826;2023-08-06T03:39:34;92624.09;;;20.65;71.69
61870;BME280;47810;42.264;23.826;2023-08-06T03:42:00;92625.50;;;20.83;73.88
61870;BME280;47810;42.264;23.826;2023-08-06T03:44:25;92632.53;;;20.84;73.33
61870;BME280;47810;42.264;23.826;2023-08-06T03:46:52;92640.00;;;20.67;72.55
61870;BME280;47810;42.264;23.826;2023-08-06T03:49:18;92642.81;;;20.59;72.93
61870;BME280;47810;42.264;23.826;2023-08-06T03:51:43;92653.72;;;20.57;75.07
61870;BME280;47810;42.264;23.826;2023-08-06T03:54:09;92643.94;;;20.35;75.77
61870;BME280;47810;42.264;23.826;2023-08-06T03:56:34;92647.28;;;20.37;74.22
61870;BME280;47810;42.264;23.826;2023-08-06T03:59:00;92626.44;;;20.54;73.79
61870;BME280;47810;42.264;23.826;2023-08-06T04:01:25;92634.91;;;20.36;75.09
61870;BME280;47810;42.264;23.826;2023-08-06T04:03:51;92640.50;;;20.41;73.61
61870;BME280;47810;42.264;23.826;2023-08-06T04:06:16;92647.44;;;20.50;75.17
61870;BME280;47810;42.264;23.826;2023-08-06T04:08:42;92639.59;;;20.48;73.94
61870;BME280;47810;42.264;23.826;2023-08-06T04:11:08;92630.50;;;20.50;77.54
61870;BME280;47810;42.264;23.826;2023-08-06T04:13:34;92623.47;;;20.12;77.87
61870;BME280;47810;42.264;23.826;2023-08-06T04:16:03;92613.63;;;20.13;76.56
61870;BME280;47810;42.264;23.826;2023-08-06T04:18:29;92617.91;;;20.29;75.74
61870;BME280;47810;42.264;23.826;2023-08-06T04:20:55;92631.00;;;20.53;73.84
61870;BME280;47810;42.264;23.826;2023-08-06T04:23:22;92620.84;;;20.70;73.65
61870;BME280;47810;42.264;23.826;2023-08-06T04:25:48;92632.94;;;20.81;72.12
61870;BME280;47810;42.264;23.826;2023-08-06T04:28:13;92629.34;;;20.95;72.76
61870;BME280;47810;42.264;23.826;2023-08-06T04:30:39;92630.09;;;20.89;73.43
61870;BME280;47810;42.264;23.826;2023-08-06T04:33:05;92629.59;;;20.79;73.86
61870;BME280;47810;42.264;23.826;2023-08-06T04:35:30;92611.59;;;20.73;73.56
61870;BME280;47810;42.264;23.826;2023-08-06T04:37:56;92591.34;;;20.70;73.38
61870;BME280;47810;42.264;23.826;2023-08-06T04:40:22;92596.94;;;20.54;76.41
61870;BME280;47810;42.264;23.826;2023-08-06T04:42:49;92592.69;;;20.44;76.75
61870;BME280;47810;42.264;23.826;2023-08-06T04:45:14;92599.41;;;20.34;80.09
61870;BME280;47810;42.264;23.826;2023-08-06T04:47:40;92604.66;;;20.06;79.47
61870;BME280;47810;42.264;23.826;2023-08-06T04:50:05;92598.97;;;19.64;80.62
61870;BME280;47810;42.264;23.826;2023-08-06T04:52:32;92590.63;;;19.89;78.74
61870;BME280;47810;42.264;23.826;2023-08-06T04:54:57;92595.25;;;19.95;78.67
61870;BME280;47810;42.264;23.826;2023-08-06T04:57:24;92592.44;;;20.03;77.53
61870;BME280;47810;42.264;23.826;2023-08-06T04:59:49;92595.78;;;20.05;77.98
61870;BME280;47810;42.264;23.826;2023-08-06T05:02:15;92590.50;;;20.12;78.57
61870;BME280;47810;42.264;23.826;2023-08-06T05:04:41;92588.41;;;20.07;78.62
61870;BME280;47810;42.264;23.826;2023-08-06T05:07:07;92573.69;;;20.03;80.11
61870;BME280;47810;42.264;23.826;2023-08-06T05:09:33;92569.97;;;19.83;80.01
61870;BME280;47810;42.264;23.826;2023-08-06T05:12:03;92572.75;;;19.74;80.54
61870;BME280;47810;42.264;23.826;2023-08-06T05:14:29;92573.50;;;19.68;80.69
61870;BME280;47810;42.264;23.826;2023-08-06T05:16:54;92560.72;;;19.70;79.65
61870;BME280;47810;42.264;23.826;2023-08-06T05:19:20;92564.06;;;19.72;79.21
61870;BME280;47810;42.264;23.826;2023-08-06T05:21:45;92563.69;;;19.75;79.31
61870;BME280;47810;42.264;23.826;2023-08-06T05:24:12;92571.06;;;19.59;80.12
61870;BME280;47810;42.264;23.826;2023-08-06T05:26:37;92568.50;;;19.65;81.07
61870;BME280;47810;42.264;23.826;2023-08-06T05:29:03;92566.47;;;19.38;80.55
61870;BME280;47810;42.264;23.826;2023-08-06T05:31:29;92551.88;;;19.55;80.14
61870;BME280;47810;42.264;23.826;2023-08-06T05:33:54;92543.47;;;19.28;81.13
61870;BME280;47810;42.264;23.826;2023-08-06T05:36:21;92547.53;;;19.24;82.08
61870;BME280;47810;42.264;23.826;2023-08-06T05:38:47;92552.81;;;19.33;81.97
61870;BME280;47810;42.264;23.826;2023-08-06T05:41:13;92555.03;;;19.14;83.37
61870;BME280;47810;42.264;23.826;2023-08-06T05:43:38;92557.16;;;19.34;83.13
61870;BME280;47810;42.264;23.826;2023-08-06T05:46:04;92562.97;;;19.52;82.75
61870;BME280;47810;42.264;23.826;2023-08-06T05:48:30;92567.84;;;19.63;83.37
61870;BME280;47810;42.264;23.826;2023-08-06T05:50:57;92570.44;;;19.71;83.33
61870;BME280;47810;42.264;23.826;2023-08-06T05:53:22;92567.84;;;19.78;82.32
61870;BME280;47810;42.264;23.826;2023-08-06T05:55:48;92566.47;;;19.67;81.85
61870;BME280;47810;42.264;23.826;2023-08-06T05:58:14;92568.41;;;19.73;81.69
61870;BME280;47810;42.264;23.826;2023-08-06T06:00:39;92567.06;;;19.99;80.86
61870;BME280;47810;42.264;23.826;2023-08-06T06:03:05;92574.25;;;20.13;78.88
61870;BME280;47810;42.264;23.826;2023-08-06T06:05:32;92580.13;;;20.23;78.87
61870;BME280;47810;42.264;23.826;2023-08-06T06:07:57;92583.69;;;20.31;77.32
61870;BME280;47810;42.264;23.826;2023-08-06T06:10:23;92583.97;;;20.36;79.17
61870;BME280;47810;42.264;23.826;2023-08-06T06:12:49;92589.19;;;20.44;77.19
61870;BME280;47810;42.264;23.826;2023-08-06T06:15:14;92595.56;;;20.58;76.26
61870;BME280;47810;42.264;23.826;2023-08-06T06:17:40;92594.72;;;20.57;78.79
61870;BME280;47810;42.264;23.826;2023-08-06T06:20:06;92603.25;;;20.46;77.84
61870;BME280;47810;42.264;23.826;2023-08-06T06:22:31;92600.13;;;20.42;79.90
61870;BME280;47810;42.264;23.826;2023-08-06T06:24:57;92603.19;;;20.39;77.70
61870;BME280;47810;42.264;23.826;2023-08-06T06:27:22;92607.97;;;20.44;77.90
61870;BME280;47810;42.264;23.826;2023-08-06T06:29:48;92607.28;;;20.35;76.23
61870;BME280;47810;42.264;23.826;2023-08-06T06:32:13;92606.16;;;20.30;77.79
61870;BME280;47810;42.264;23.826;2023-08-06T06:34:39;92611.91;;;20.48;79.19
61870;BME280;47810;42.264;23.826;2023-08-06T06:37:05;92623.97;;;20.52;77.01
61870;BME280;47810;42.264;23.826;2023-08-06T06:39:30;92627.19;;;20.47;78.03
61870;BME280;47810;42.264;23.826;2023-08-06T06:41:56;92634.59;;;20.45;77.58
61870;BME280;47810;42.264;23.826;2023-08-06T06:44:21;92634.84;;;20.65;78.02
61870;BME280;47810;42.264;23.826;2023-08-06T06:46:47;92635.34;;;20.76;78.47
61870;BME280;47810;42.264;23.826;2023-08-06T06:49:13;92632.47;;;20.99;76.92
61870;BME280;47810;42.264;23.826;2023-08-06T06:51:38;92633.75;;;21.03;78.08
61870;BME280;47810;42.264;23.826;2023-08-06T06:54:04;92642.34;;;21.20;79.04
61870;BME280;47810;42.264;23.826;2023-08-06T06:56:29;92634.19;;;21.34;81.21
61870;BME280;47810;42.264;23.826;2023-08-06T06:58:55;92641.06;;;21.37;79.08
61870;BME280;47810;42.264;23.826;2023-08-06T07:01:21;92645.69;;;21.50;79.22
61870;BME280;47810;42.264;23.826;2023-08-06T07:03:46;92659.34;;;21.48;75.84
61870;BME280;47810;42.264;23.826;2023-08-06T07:06:12;92668.56;;;21.39;74.90
61870;BME280;47810;42.264;23.826;2023-08-06T07:08:38;92668.81;;;21.23;75.16
61870;BME280;47810;42.264;23.826;2023-08-06T07:11:04;92667.78;;;21.24;74.46
61870;BME280;47810;42.264;23.826;2023-08-06T07:13:30;92668.44;;;21.26;74.26
61870;BME280;47810;42.264;23.826;2023-08-06T07:15:55;92672.06;;;21.18;76.90
61870;BME280;47810;42.264;23.826;2023-08-06T07:18:21;92669.13;;;21.13;77.43
61870;BME280;47810;42.264;23.826;2023-08-06T07:20:50;92675.00;;;21.02;78.29
61870;BME280;47810;42.264;23.826;2023-08-06T07:23:16;92662.94;;;20.69;80.04
61870;BME280;47810;42.264;23.826;2023-08-06T07:25:42;92665.88;;;20.75;82.03
61870;BME280;47810;42.264;23.826;2023-08-06T07:28:08;92664.91;;;20.82;79.91
61870;BME280;47810;42.264;23.826;2023-08-06T07:30:33;92673.78;;;20.83;80.54
61870;BME280;47810;42.264;23.826;2023-08-06T07:32:59;92662.94;;;20.91;80.63
61870;BME280;47810;42.264;23.826;2023-08-06T07:35:25;92656.75;;;20.90;79.12
61870;BME280;47810;42.264;23.826;2023-08-06T07:37:53;92666.28;;;20.93;79.78
61870;BME280;47810;42.264;23.826;2023-08-06T07:40:19;92669.47;;;21.03;78.90
61870;BME280;47810;42.264;23.826;2023-08-06T07:42:44;92676.97;;;21.14;76.74
61870;BME280;47810;42.264;23.826;2023-08-06T07:45:10;92676.94;;;21.08;74.91
61870;BME280;47810;42.264;23.826;2023-08-06T07:47:35;92666.63;;;21.11;72.37
61870;BME280;47810;42.264;23.826;2023-08-06T07:50:01;92667.53;;;20.97;72.57
61870;BME280;47810;42.264;23.826;2023-08-06T07:52:26;92676.59;;;21.17;74.28
61870;BME280;47810;42.264;23.826;2023-08-06T07:54:52;92679.75;;;21.43;72.33
61870;BME280;47810;42.264;23.826;2023-08-06T07:57:18;92679.19;;;21.82;70.83
61870;BME280;47810;42.264;23.826;2023-08-06T07:59:43;92670.31;;;22.16;67.02
61870;BME280;47810;42.264;23.826;2023-08-06T08:02:09;92683.06;;;22.07;67.06
61870;BME280;47810;42.264;23.826;2023-08-06T08:04:34;92674.84;;;21.81;66.17
61870;BME280;47810;42.264;23.826;2023-08-06T08:07:00;92683.59;;;21.61;68.13
61870;BME280;47810;42.264;23.826;2023-08-06T08:09:26;92683.06;;;21.45;68.62
61870;BME280;47810;42.264;23.826;2023-08-06T08:11:52;92684.38;;;21.34;69.20
61870;BME280;47810;42.264;23.826;2023-08-06T08:14:17;92685.06;;;21.36;67.44
61870;BME280;47810;42.264;23.826;2023-08-06T08:16:43;92676.31;;;21.34;68.17
61870;BME280;47810;42.264;23.826;2023-08-06T08:19:11;92681.69;;;21.34;66.95
61870;BME280;47810;42.264;23.826;2023-08-06T08:21:36;92675.06;;;21.51;67.05
61870;BME280;47810;42.264;23.826;2023-08-06T08:24:03;92673.41;;;21.29;65.84
61870;BME280;47810;42.264;23.826;2023-08-06T08:26:29;92670.47;;;21.24;66.13
61870;BME280;47810;42.264;23.826;2023-08-06T08:28:54;92675.34;;;21.13;66.32
61870;BME280;47810;42.264;23.826;2023-08-06T08:31:20;92675.06;;;21.08;68.01
61870;BME280;47810;42.264;23.826;2023-08-06T08:33:45;92666.25;;;21.14;66.93
61870;BME280;47810;42.264;23.826;2023-08-06T08:36:11;92668.03;;;21.29;67.58
61870;BME280;47810;42.264;23.826;2023-08-06T08:38:37;92662.31;;;21.10;67.16
61870;BME280;47810;42.264;23.826;2023-08-06T08:41:02;92670.06;;;21.27;67.59
61870;BME280;47810;42.264;23.826;2023-08-06T08:43:30;92659.72;;;21.45;67.86
61870;BME280;47810;42.264;23.826;2023-08-06T08:45:56;92664.19;;;21.66;66.88
61870;BME280;47810;42.264;23.826;2023-08-06T08:48:24;92659.25;;;21.70;67.19
61870;BME280;47810;42.264;23.826;2023-08-06T08:50:49;92651.06;;;21.78;67.47
61870;BME280;47810;42.264;23.826;2023-08-06T08:53:16;92645.22;;;21.68;66.08
61870;BME280;47810;42.264;23.826;2023-08-06T08:55:46;92644.50;;;21.87;67.78
61870;BME280;47810;42.264;23.826;2023-08-06T08:58:14;92628.78;;;21.84;67.04
61870;BME280;47810;42.264;23.826;2023-08-06T09:00:42;92626.78;;;21.99;67.16
61870;BME280;47810;42.264;23.826;2023-08-06T09:03:12;92622.38;;;21.92;66.60
61870;BME280;47810;42.264;23.826;2023-08-06T09:05:37;92611.06;;;21.96;66.02
61870;BME280;47810;42.264;23.826;2023-08-06T09:08:06;92610.38;;;22.22;64.82
61870;BME280;47810;42.264;23.826;2023-08-06T09:10:33;92604.66;;;22.45;65.92
61870;BME280;47810;42.264;23.826;2023-08-06T09:13:01;92592.69;;;22.68;62.91
61870;BME280;47810;42.264;23.826;2023-08-06T09:15:28;92577.63;;;23.33;63.31
61870;BME280;47810;42.264;23.826;2023-08-06T09:17:56;92583.59;;;23.88;59.17
61870;BME280;47810;42.264;23.826;2023-08-06T09:20:22;92578.00;;;24.42;56.64
61870;BME280;47810;42.264;23.826;2023-08-06T09:22:55;92579.44;;;24.82;56.11
61870;BME280;47810;42.264;23.826;2023-08-06T09:25:23;92559.94;;;25.37;53.86
61870;BME280;47810;42.264;23.826;2023-08-06T09:27:52;92562.66;;;25.55;52.54
61870;BME280;47810;42.264;23.826;2023-08-06T09:30:37;92567.75;;;25.89;57.23
61870;BME280;47810;42.264;23.826;2023-08-06T09:33:08;92563.22;;;26.19;51.20
61870;BME280;47810;42.264;23.826;2023-08-06T09:35:39;92569.69;;;26.37;52.26
61870;BME280;47810;42.264;23.826;2023-08-06T09:38:06;92559.78;;;26.49;49.17
61870;BME280;47810;42.264;23.826;2023-08-06T09:40:35;92550.19;;;26.65;49.52
61870;BME280;47810;42.264;23.826;2023-08-06T09:43:01;92555.59;;;26.95;48.14
61870;BME280;47810;42.264;23.826;2023-08-06T09:45:34;92559.72;;;26.98;45.19
61870;BME280;47810;42.264;23.826;2023-08-06T09:48:00;92557.72;;;27.05;48.34
61870;BME280;47810;42.264;23.826;2023-08-06T09:50:31;92564.41;;;27.44;45.00
61870;BME280;47810;42.264;23.826;2023-08-06T09:52:58;92564.31;;;27.74;46.26
61870;BME280;47810;42.264;23.826;2023-08-06T09:55:24;92564.69;;;27.78;43.78
61870;BME280;47810;42.264;23.826;2023-08-06T09:57:50;92570.41;;;27.23;44.66
61870;BME280;47810;42.264;23.826;2023-08-06T10:00:16;92578.78;;;27.03;44.43
61870;BME280;47810;42.264;23.826;2023-08-06T10:02:42;92577.47;;;26.45;45.56
61870;BME280;47810;42.264;23.826;2023-08-06T10:05:08;92570.22;;;26.09;47.05
61870;BME280;47810;42.264;23.826;2023-08-06T10:07:34;92571.59;;;25.74;47.70
61870;BME280;47810;42.264;23.826;2023-08-06T10:10:00;92577.75;;;25.88;48.56
61870;BME280;47810;42.264;23.826;2023-08-06T10:12:28;92577.59;;;25.58;48.09
61870;BME280;47810;42.264;23.826;2023-08-06T10:14:55;92578.97;;;25.67;50.18
61870;BME280;47810;42.264;23.826;2023-08-06T10:17:22;92582.03;;;25.27;48.85
61870;BME280;47810;42.264;23.826;2023-08-06T10:19:49;92575.47;;;25.10;49.24
61870;BME280;47810;42.264;23.826;2023-08-06T10:22:16;92568.16;;;25.24;48.57
61870;BME280;47810;42.264;23.826;2023-08-06T10:27:19;92579.78;;;25.24;48.62
61870;BME280;47810;42.264;23.826;2023-08-06T10:29:44;92576.84;;;25.51;46.42
61870;BME280;47810;42.264;23.826;2023-08-06T10:32:10;92566.47;;;25.48;46.44
61870;BME280;47810;42.264;23.826;2023-08-06T10:34:54;92568.28;;;25.54;46.39
61870;BME280;47810;42.264;23.826;2023-08-06T10:37:36;92575.19;;;25.50;46.43
61870;BME280;47810;42.264;23.826;2023-08-06T10:40:02;92569.34;;;25.53;46.39
61870;BME280;47810;42.264;23.826;2023-08-06T10:42:28;92564.19;;;25.70;45.21
61870;BME280;47810;42.264;23.826;2023-08-06T10:47:58;92561.38;;;25.83;44.80
61870;BME280;47810;42.264;23.826;2023-08-06T10:50:24;92573.00;;;26.02;45.43
61870;BME280;47810;42.264;23.826;2023-08-06T10:52:50;92574.38;;;26.11;44.02
61870;BME280;47810;42.264;23.826;2023-08-06T10:55:33;92574.44;;;25.86;44.30
61870;BME280;47810;42.264;23.826;2023-08-06T10:58:00;92576.41;;;25.97;46.08
61870;BME280;47810;42.264;23.826;2023-08-06T11:00:25;92574.06;;;25.83;44.73
61870;BME280;47810;42.264;23.826;2023-08-06T11:02:51;92582.09;;;25.64;43.66
61870;BME280;47810;42.264;23.826;2023-08-06T11:05:17;92584.16;;;25.69;43.96
61870;BME280;47810;42.264;23.826;2023-08-06T11:07:43;92580.88;;;25.42;43.33
61870;BME280;47810;42.264;23.826;2023-08-06T11:10:12;92578.91;;;25.30;43.93
61870;BME280;47810;42.264;23.826;2023-08-06T11:12:39;92587.75;;;25.38;45.04
61870;BME280;47810;42.264;23.826;2023-08-06T11:15:05;92593.78;;;25.15;44.03
61870;BME280;47810;42.264;23.826;2023-08-06T11:17:31;92590.66;;;24.79;43.60
61870;BME280;47810;42.264;23.826;2023-08-06T11:20:03;92603.13;;;24.80;44.00
61870;BME280;47810;42.264;23.826;2023-08-06T11:22:29;92595.28;;;24.72;45.21
61870;BME280;47810;42.264;23.826;2023-08-06T11:24:55;92614.00;;;24.67;44.74
61870;BME280;47810;42.264;23.826;2023-08-06T11:27:20;92610.03;;;24.70;43.98
61870;BME280;47810;42.264;23.826;2023-08-06T11:29:46;92615.59;;;24.75;45.42
61870;BME280;47810;42.264;23.826;2023-08-06T11:32:11;92620.22;;;24.68;45.41
61870;BME280;47810;42.264;23.826;2023-08-06T11:34:38;92629.44;;;24.53;44.60
61870;BME280;47810;42.264;23.826;2023-08-06T11:37:04;92624.44;;;24.57;43.31
61870;BME280;47810;42.264;23.826;2023-08-06T11:39:36;92632.16;;;24.47;43.83
61870;BME280;47810;42.264;23.826;2023-08-06T11:42:05;92636.84;;;24.64;43.85
61870;BME280;47810;42.264;23.826;2023-08-06T11:44:31;92635.59;;;24.67;44.58
61870;BME280;47810;42.264;23.826;2023-08-06T11:46:58;92629.25;;;24.86;43.79
61870;BME280;47810;42.264;23.826;2023-08-06T11:49:45;92634.06;;;25.16;45.88
61870;BME280;47810;42.264;23.826;2023-08-06T11:52:16;92632.53;;;25.52;43.34
61870;BME280;47810;42.264;23.826;2023-08-06T11:54:43;92637.19;;;25.95;43.86
61870;BME280;47810;42.264;23.826;2023-08-06T11:57:10;92630.41;;;26.22;42.19
61870;BME280;47810;42.264;23.826;2023-08-06T11:59:36;92634.81;;;26.60;44.12
61870;BME280;47810;42.264;23.826;2023-08-06T12:02:07;92630.00;;;26.62;42.45
61870;BME280;47810;42.264;23.826;2023-08-06T12:07:17;92637.03;;;27.42;42.73
61870;BME280;47810;42.264;23.826;2023-08-06T12:09:42;92648.38;;;27.62;41.87
61870;BME280;47810;42.264;23.826;2023-08-06T12:12:08;92638.50;;;27.80;41.94
61870;BME280;47810;42.264;23.826;2023-08-06T12:14:36;92633.28;;;27.67;41.16
61870;BME280;47810;42.264;23.826;2023-08-06T12:17:01;92629.69;;;27.31;41.34
61870;BME280;47810;42.264;23.826;2023-08-06T12:19:27;92631.06;;;26.61;43.42
61870;BME280;47810;42.264;23.826;2023-08-06T12:21:52;92628.75;;;26.77;43.03
61870;BME280;47810;42.264;23.826;2023-08-06T12:24:18;92637.13;;;27.05;44.50
61870;BME280;47810;42.264;23.826;2023-08-06T12:26:43;92633.22;;;27.20;41.33
61870;BME280;47810;42.264;23.826;2023-08-06T12:29:09;92638.31;;;27.39;41.63
61870;BME280;47810;42.264;23.826;2023-08-06T12:31:35;92645.50;;;27.34;43.80
61870;BME280;47810;42.264;23.826;2023-08-06T12:34:00;92626.13;;;27.18;41.56
61870;BME280;47810;42.264;23.826;2023-08-06T12:36:26;92643.38;;;27.36;40.83
61870;BME280;47810;42.264;23.826;2023-08-06T12:38:51;92630.53;;;27.43;40.08
61870;BME280;47810;42.264;23.826;2023-08-06T12:41:17;92637.72;;;27.26;40.40
61870;BME280;47810;42.264;23.826;2023-08-06T12:43:42;92628.66;;;27.44;40.58
61870;BME280;47810;42.264;23.826;2023-08-06T12:46:08;92627.72;;;27.50;41.68
61870;BME280;47810;42.264;23.826;2023-08-06T12:48:34;92637.53;;;27.62;42.10
61870;BME280;47810;42.264;23.826;2023-08-06T12:50:59;92623.66;;;27.17;42.43
61870;BME280;47810;42.264;23.826;2023-08-06T12:53:26;92636.50;;;27.22;43.11
61870;BME280;47810;42.264;23.826;2023-08-06T12:55:52;92632.81;;;26.86;43.34
61870;BME280;47810;42.264;23.826;2023-08-06T12:58:18;92638.41;;;26.73;42.39
61870;BME280;47810;42.264;23.826;2023-08-06T13:00:43;92634.66;;;26.37;43.39